Time;durP1;ratioP1;P1;durP2;ratioP2;P2;SDS_P1;SDS_P2;PMS_P1;PMS_P2;Temp;Humidity;BMP_temperature;BMP_pressure;BME280_temperature;BME280_humidity;BME280_pressure;Samples;Min_cycle;Max_cycle;Signal;HPM_P1;HPM_P2
2021/06/23 00:01:40;;;;;;;1.55;1.45;;;;;;;17.63;87.16;96499.72;5093312;28;20031;-72
2021/06/23 00:04:06;;;;;;;3.08;2.10;;;;;;;17.62;86.91;96495.47;5093539;28;20036;-72
2021/06/23 00:06:32;;;;;;;1.70;1.60;;;;;;;17.60;87.07;96502.91;5092588;28;20048;-72
2021/06/23 00:08:58;;;;;;;2.08;1.70;;;;;;;17.60;87.47;96508.19;5092469;28;20036;-74
2021/06/23 00:11:25;;;;;;;1.60;1.50;;;;;;;17.58;87.51;96507.66;5093088;28;20377;-73
2021/06/23 00:13:52;;;;;;;1.70;1.60;;;;;;;17.58;87.47;96509.53;5093365;28;20066;-73
2021/06/23 00:16:18;;;;;;;2.92;1.65;;;;;;;17.59;87.71;96508.44;5093117;28;20499;-73
2021/06/23 00:18:45;;;;;;;2.10;1.70;;;;;;;17.59;87.63;96511.88;5093059;28;20341;-73
2021/06/23 00:21:11;;;;;;;1.70;1.60;;;;;;;17.61;87.95;96516.94;5093004;28;20040;-74
2021/06/23 00:23:37;;;;;;;2.00;1.75;;;;;;;17.59;87.80;96514.53;5094207;28;20048;-74
2021/06/23 00:26:05;;;;;;;1.90;1.70;;;;;;;17.59;87.92;96501.28;5097165;28;20047;-73
2021/06/23 00:28:32;;;;;;;2.30;1.70;;;;;;;17.56;87.90;96504.47;5097330;28;20043;-73
2021/06/23 00:30:58;;;;;;;2.13;1.90;;;;;;;17.57;87.91;96499.97;5096006;28;20047;-72
2021/06/23 00:33:31;;;;;;;1.83;1.73;;;;;;;17.56;88.35;96496.50;5097634;28;20028;-72
2021/06/23 00:35:57;;;;;;;2.90;1.70;;;;;;;17.55;88.06;96500.22;5096870;28;20043;-73
2021/06/23 00:38:23;;;;;;;1.60;1.50;;;;;;;17.54;88.20;96498.63;5096849;28;20043;-72
2021/06/23 00:40:49;;;;;;;1.48;1.45;;;;;;;17.55;88.04;96494.91;5095998;28;20032;-72
2021/06/23 00:43:16;;;;;;;1.77;1.35;;;;;;;17.55;88.13;96491.47;5097239;28;20468;-72
2021/06/23 00:45:44;;;;;;;3.35;1.70;;;;;;;17.56;88.09;96487.78;5097165;28;20047;-72
2021/06/23 00:48:20;;;;;;;1.70;1.60;;;;;;;17.55;88.39;96491.47;5096961;28;20464;-72
2021/06/23 00:50:48;;;;;;;1.70;1.60;;;;;;;17.52;88.34;96505.25;5096811;28;20028;-73
2021/06/23 00:53:20;;;;;;;1.60;1.60;;;;;;;17.50;88.09;96502.06;5096715;28;20051;-73
2021/06/23 00:55:52;;;;;;;1.67;1.58;;;;;;;17.49;88.64;96488.03;5096728;28;20056;-73
2021/06/23 00:58:18;;;;;;;1.42;1.42;;;;;;;17.49;88.56;96487.19;5097071;28;20055;-73
2021/06/23 01:00:45;;;;;;;1.40;1.38;;;;;;;17.48;88.38;96491.72;5096452;28;20369;-72
2021/06/23 01:03:11;;;;;;;1.83;1.60;;;;;;;17.48;88.78;96502.31;5095270;28;20035;-72
2021/06/23 01:05:39;;;;;;;1.52;1.42;;;;;;;17.48;88.67;96504.19;5096312;28;20024;-73
2021/06/23 01:08:08;;;;;;;1.55;1.45;;;;;;;17.49;88.73;96511.06;5095837;28;20044;-72
2021/06/23 01:10:35;;;;;;;1.70;1.35;;;;;;;17.47;88.82;96506.03;5097056;28;20032;-72
2021/06/23 01:13:16;;;;;;;2.70;1.50;;;;;;;17.49;89.13;96511.88;5096138;28;20035;-72
2021/06/23 01:15:45;;;;;;;1.60;1.50;;;;;;;17.49;88.88;96513.72;5096342;28;20072;-72
2021/06/23 01:18:11;;;;;;;1.52;1.42;;;;;;;17.49;88.85;96508.41;5095981;28;20036;-73
2021/06/23 01:20:45;;;;;;;1.60;1.48;;;;;;;17.49;89.29;96506.59;5096199;28;20040;-73
2021/06/23 01:23:14;;;;;;;1.60;1.42;;;;;;;17.48;89.10;96504.97;5096810;28;20389;-74
2021/06/23 01:25:44;;;;;;;4.22;1.40;;;;;;;17.49;89.09;96503.13;5082037;28;20047;-73
2021/06/23 01:28:11;;;;;;;1.45;1.30;;;;;;;17.49;89.06;96498.63;5095540;28;20052;-73
2021/06/23 01:30:37;;;;;;;1.50;1.40;;;;;;;17.47;89.28;96491.97;5095830;28;20460;-73
2021/06/23 01:33:05;;;;;;;1.38;1.30;;;;;;;17.45;89.20;96487.75;5095941;28;20047;-73
2021/06/23 01:35:33;;;;;;;1.60;1.50;;;;;;;17.43;89.37;96487.19;5095151;28;20032;-73
2021/06/23 01:38:04;;;;;;;1.73;1.60;;;;;;;17.44;89.22;96482.69;5095963;28;20028;-73
2021/06/23 01:40:30;;;;;;;2.67;1.42;;;;;;;17.42;89.59;96485.59;5095743;28;20028;-73
2021/06/23 01:42:57;;;;;;;1.95;1.70;;;;;;;17.42;89.62;96482.94;5095688;28;20039;-74
2021/06/23 01:45:25;;;;;;;2.20;2.00;;;;;;;17.42;89.63;96482.16;5095744;28;20494;-73
2021/06/23 01:47:52;;;;;;;1.80;1.70;;;;;;;17.42;89.33;96490.09;5095751;28;20419;-73
2021/06/23 01:50:21;;;;;;;2.05;1.92;;;;;;;17.41;89.61;96489.31;5095630;28;20047;-73
2021/06/23 01:52:47;;;;;;;1.25;1.25;;;;;;;17.40;89.59;96484.25;5095539;28;20032;-73
2021/06/23 01:55:49;;;;;;;1.98;1.80;;;;;;;17.40;89.52;96489.56;5094082;28;20052;-72
2021/06/23 01:58:09;;;;;;;1.67;1.63;;;;;;;17.38;89.50;96489.81;5090304;28;20055;-73
2021/06/23 02:00:47;;;;;;;1.92;1.83;;;;;;;17.38;89.44;96487.16;5095637;28;20039;-73
2021/06/23 02:03:38;;;;;;;1.73;1.63;;;;;;;17.38;89.95;96481.06;5095380;28;20040;-73
2021/06/23 02:06:07;;;;;;;1.73;1.52;;;;;;;17.35;89.78;96473.66;5094870;28;20044;-73
2021/06/23 02:08:51;;;;;;;2.08;1.95;;;;;;;17.35;90.11;96474.44;5095423;28;20044;-73
2021/06/23 02:11:31;;;;;;;3.00;1.85;;;;;;;17.33;89.74;96470.47;5095749;28;20040;-73
2021/06/23 02:14:19;;;;;;;1.85;1.77;;;;;;;17.34;89.93;96472.03;5095328;28;20043;-73
2021/06/23 02:16:47;;;;;;;1.73;1.63;;;;;;;17.32;89.63;96468.84;5094504;28;20024;-73
2021/06/23 02:19:14;;;;;;;2.00;1.85;;;;;;;17.31;89.72;96476.03;5094815;28;20051;-73
2021/06/23 02:21:41;;;;;;;4.22;1.70;;;;;;;17.32;89.73;96466.22;5094881;28;20472;-73
2021/06/23 02:24:09;;;;;;;2.00;1.90;;;;;;;17.32;89.80;96466.22;5095465;28;20032;-73
2021/06/23 02:26:35;;;;;;;1.98;1.80;;;;;;;17.34;89.57;96458.78;5094687;28;20468;-73
2021/06/23 02:29:05;;;;;;;1.98;1.88;;;;;;;17.31;89.49;96461.97;5094785;28;20503;-72
2021/06/23 02:31:34;;;;;;;1.95;1.85;;;;;;;17.29;89.28;96462.22;5095017;28;20028;-73
2021/06/23 02:34:05;;;;;;;2.15;2.00;;;;;;;17.28;89.62;96470.44;5094526;28;20032;-73
2021/06/23 02:36:32;;;;;;;7.05;2.83;;;;;;;17.25;89.59;96467.25;5094671;28;20396;-73
2021/06/23 02:38:59;;;;;;;2.30;2.10;;;;;;;17.24;89.74;96472.81;5094675;28;20028;-73
2021/06/23 02:41:25;;;;;;;3.60;2.30;;;;;;;17.21;89.90;96471.47;5094388;28;20040;-73
2021/06/23 02:43:53;;;;;;;2.95;2.13;;;;;;;17.21;90.18;96478.63;5094760;28;20035;-73
2021/06/23 02:46:20;;;;;;;2.88;2.58;;;;;;;17.20;89.98;96483.13;5094017;28;20041;-73
2021/06/23 02:48:49;;;;;;;3.80;2.58;;;;;;;17.19;90.06;96483.38;5094616;28;20039;-73
2021/06/23 02:51:23;;;;;;;3.00;2.70;;;;;;;17.16;90.68;96487.38;5094620;28;20460;-73
2021/06/23 02:53:50;;;;;;;2.60;2.40;;;;;;;17.12;90.37;96475.69;5094674;28;20027;-73
2021/06/23 02:56:18;;;;;;;3.35;2.55;;;;;;;17.08;90.57;96481.75;5093812;28;20486;-73
2021/06/23 02:58:45;;;;;;;3.00;2.30;;;;;;;17.04;90.76;96471.66;5093975;28;20054;-73
2021/06/23 03:01:12;;;;;;;3.33;3.00;;;;;;;17.02;90.98;96478.28;5094625;28;20032;-73
2021/06/23 03:03:42;;;;;;;2.90;2.17;;;;;;;17.00;91.21;96485.69;5094290;28;20032;-73
2021/06/23 03:06:09;;;;;;;2.72;2.53;;;;;;;17.00;91.21;96489.13;5094252;28;20036;-73
2021/06/23 03:08:36;;;;;;;2.80;2.60;;;;;;;17.01;91.35;96480.16;5093700;28;20035;-73
2021/06/23 03:11:04;;;;;;;2.83;2.50;;;;;;;17.01;91.29;96498.69;5094098;28;20043;-73
2021/06/23 03:13:30;;;;;;;7.95;3.08;;;;;;;17.02;91.49;96491.53;5094303;28;20043;-73
2021/06/23 03:15:58;;;;;;;6.70;2.83;;;;;;;17.02;91.60;96494.97;5094123;28;20059;-73
2021/06/23 03:18:25;;;;;;;3.15;2.85;;;;;;;17.02;91.84;96488.88;5094178;28;20036;-73
2021/06/23 03:20:51;;;;;;;4.07;3.30;;;;;;;17.02;91.85;96492.31;5093783;28;20032;-73
2021/06/23 03:23:17;;;;;;;4.20;2.75;;;;;;;17.01;91.72;96487.31;5093741;28;20040;-73
2021/06/23 03:25:44;;;;;;;3.25;3.05;;;;;;;17.00;92.11;96485.69;5094244;28;20043;-73
2021/06/23 03:28:11;;;;;;;3.70;2.63;;;;;;;17.00;92.09;96488.34;5093208;28;20052;-73
2021/06/23 03:30:38;;;;;;;4.18;2.72;;;;;;;16.97;92.21;96487.00;5093455;28;20054;-73
2021/06/23 03:33:05;;;;;;;4.97;2.80;;;;;;;16.98;92.30;96490.44;5093569;28;20432;-73
2021/06/23 03:35:31;;;;;;;3.28;2.70;;;;;;;17.00;92.45;96499.72;5093646;28;20036;-73
2021/06/23 03:37:57;;;;;;;3.55;2.65;;;;;;;17.02;92.47;96499.47;5093222;28;20047;-73
2021/06/23 03:40:24;;;;;;;2.63;2.42;;;;;;;17.04;92.67;96502.66;5093572;28;20036;-73
2021/06/23 03:42:51;;;;;;;3.67;3.38;;;;;;;17.03;92.61;96503.75;5093478;28;20488;-73
2021/06/23 03:45:17;;;;;;;4.03;3.72;;;;;;;17.03;92.72;96506.38;5093567;28;20040;-73
2021/06/23 03:47:44;;;;;;;3.25;2.63;;;;;;;17.02;93.07;96510.88;5093630;28;20040;-73
2021/06/23 03:50:11;;;;;;;2.88;2.55;;;;;;;17.03;93.12;96517.00;5093147;28;20408;-73
2021/06/23 03:52:38;;;;;;;2.60;2.40;;;;;;;17.03;92.81;96523.06;5093329;28;20036;-73
2021/06/23 03:55:10;;;;;;;3.63;2.25;;;;;;;17.04;93.09;96522.00;5093147;28;20056;-73
2021/06/23 03:57:36;;;;;;;2.05;1.85;;;;;;;17.08;93.06;96522.28;5093025;28;20404;-73
2021/06/23 04:00:04;;;;;;;2.58;2.42;;;;;;;17.10;93.15;96524.69;5092748;28;20078;-74
2021/06/23 04:02:31;;;;;;;2.50;2.30;;;;;;;17.12;92.81;96525.25;5093230;28;20032;-73
2021/06/23 04:04:57;;;;;;;2.67;2.47;;;;;;;17.12;92.81;96536.63;5093060;28;20037;-73
2021/06/23 04:07:23;;;;;;;2.53;2.03;;;;;;;17.13;92.69;96543.50;5092991;28;20044;-73
2021/06/23 04:09:49;;;;;;;6.63;3.00;;;;;;;17.13;92.88;96543.50;5093898;28;20032;-73
2021/06/23 04:12:15;;;;;;;3.50;2.60;;;;;;;17.15;92.86;96551.22;5093178;28;20043;-73
2021/06/23 04:14:41;;;;;;;4.60;3.15;;;;;;;17.16;92.72;96540.38;5093419;28;20393;-73
2021/06/23 04:17:08;;;;;;;3.58;3.28;;;;;;;17.14;92.60;96536.38;5093090;28;20035;-73
2021/06/23 04:19:34;;;;;;;3.70;3.15;;;;;;;17.08;92.64;96534.75;5092819;28;20036;-73
2021/06/23 04:22:00;;;;;;;2.58;2.30;;;;;;;17.05;92.48;96536.06;5092891;28;20047;-72
2021/06/23 04:24:26;;;;;;;2.78;2.47;;;;;;;17.05;92.67;96536.06;5092666;28;20036;-73
2021/06/23 04:26:53;;;;;;;2.35;2.03;;;;;;;17.06;92.98;96535.00;5093420;28;20040;-73
2021/06/23 04:29:19;;;;;;;1.85;1.75;;;;;;;17.10;93.02;96538.75;5093007;28;20035;-73
2021/06/23 04:31:45;;;;;;;1.80;1.67;;;;;;;17.11;92.78;96540.31;5093349;28;20028;-72
2021/06/23 04:34:11;;;;;;;1.48;1.38;;;;;;;17.17;92.47;96541.16;5092888;28;20040;-73
2021/06/23 04:36:38;;;;;;;1.70;1.60;;;;;;;17.32;92.77;96538.56;5092637;28;20115;-73
2021/06/23 04:39:04;;;;;;;1.63;1.52;;;;;;;17.50;92.50;96529.38;5093264;28;20040;-73
2021/06/23 04:41:30;;;;;;;1.30;1.30;;;;;;;17.72;92.12;96541.63;5092515;28;20040;-73
2021/06/23 04:43:56;;;;;;;1.50;1.33;;;;;;;17.98;91.36;96539.88;5092872;28;20032;-73
2021/06/23 04:46:22;;;;;;;3.35;1.55;;;;;;;18.20;90.40;96532.47;5093011;28;20028;-73
2021/06/23 04:48:49;;;;;;;1.77;1.52;;;;;;;18.43;89.72;96546.28;5092946;28;20377;-73
2021/06/23 04:51:17;;;;;;;1.38;1.27;;;;;;;18.63;88.64;96551.59;5093162;28;20040;-73
2021/06/23 04:53:43;;;;;;;1.25;0.98;;;;;;;18.86;87.91;96544.19;5093123;28;20452;-73
2021/06/23 04:56:10;;;;;;;1.48;1.20;;;;;;;19.05;87.14;96550.50;5092846;28;20067;-73
2021/06/23 04:58:36;;;;;;;3.20;1.40;;;;;;;19.24;86.58;96547.28;5092858;28;20055;-73
2021/06/23 05:01:02;;;;;;;2.50;1.20;;;;;;;19.37;85.29;96544.03;5092670;28;20051;-73
2021/06/23 05:03:28;;;;;;;2.15;1.40;;;;;;;19.55;84.86;96553.28;5092687;28;20032;-73
2021/06/23 05:05:57;;;;;;;1.13;1.13;;;;;;;19.72;84.03;96550.31;5092384;28;20048;-73
2021/06/23 05:08:26;;;;;;;1.38;0.98;;;;;;;19.86;82.08;96553.97;5092514;28;20036;-73
2021/06/23 05:10:53;;;;;;;1.13;1.00;;;;;;;19.82;80.96;96546.78;5094483;28;20056;-73
2021/06/23 05:13:21;;;;;;;1.10;1.10;;;;;;;19.74;80.43;96550.03;5096496;28;20401;-74
2021/06/23 05:15:48;;;;;;;1.52;0.98;;;;;;;19.78;80.16;96554.53;5095952;28;20036;-73
2021/06/23 05:18:15;;;;;;;0.95;0.95;;;;;;;20.00;79.87;96564.00;5095985;28;20036;-73
2021/06/23 05:20:42;;;;;;;3.97;1.20;;;;;;;20.24;79.13;96564.09;5095902;28;20059;-73
2021/06/23 05:23:08;;;;;;;1.00;1.00;;;;;;;20.42;77.74;96560.78;5096171;28;20389;-73
2021/06/23 05:25:35;;;;;;;0.90;0.90;;;;;;;20.42;76.18;96566.13;5096169;28;20040;-73
2021/06/23 05:28:01;;;;;;;1.15;1.05;;;;;;;20.41;75.41;96561.06;5095106;28;20396;-73
2021/06/23 05:30:28;;;;;;;1.23;1.00;;;;;;;20.31;74.61;96564.59;5095866;28;20043;-73
2021/06/23 05:32:54;;;;;;;1.13;0.73;;;;;;;20.18;74.15;96558.03;5095035;28;20047;-73
2021/06/23 05:35:21;;;;;;;0.82;0.82;;;;;;;20.22;74.01;96563.59;5077689;28;20039;-73
2021/06/23 05:37:47;;;;;;;1.38;0.70;;;;;;;20.52;74.07;96567.91;5095356;28;20047;-73
2021/06/23 05:40:14;;;;;;;1.38;0.65;;;;;;;20.84;73.34;96562.06;5095302;28;20044;-73
2021/06/23 05:42:41;;;;;;;1.40;0.63;;;;;;;21.23;72.59;96566.50;5095859;28;20468;-74
2021/06/23 05:45:07;;;;;;;0.63;0.63;;;;;;;21.48;71.24;96568.13;5096259;28;20388;-74
2021/06/23 05:47:36;;;;;;;1.13;0.70;;;;;;;21.44;69.72;96567.09;5095978;28;20036;-74
2021/06/23 05:50:04;;;;;;;1.00;0.70;;;;;;;21.52;69.29;96573.66;5095586;28;20044;-73
2021/06/23 05:52:30;;;;;;;0.82;0.70;;;;;;;21.69;68.83;96570.50;5095389;28;20036;-73
2021/06/23 05:54:56;;;;;;;1.45;0.90;;;;;;;21.90;68.12;96573.72;5094199;28;20484;-73
2021/06/23 05:57:22;;;;;;;1.98;0.80;;;;;;;21.91;67.24;96575.31;5094852;28;20048;-74
2021/06/23 05:59:49;;;;;;;1.40;1.13;;;;;;;21.73;66.59;96578.75;5095312;28;20043;-74
2021/06/23 06:02:15;;;;;;;1.10;1.08;;;;;;;21.67;66.63;96586.00;5095106;28;20044;-73
2021/06/23 06:04:41;;;;;;;1.50;1.40;;;;;;;21.66;66.31;96592.44;5095825;28;20495;-73
2021/06/23 06:07:08;;;;;;;1.02;1.02;;;;;;;21.74;66.36;96594.50;5095459;28;20059;-73
2021/06/23 06:09:34;;;;;;;3.15;1.02;;;;;;;21.87;66.15;96584.97;5094634;28;20044;-73
2021/06/23 06:12:00;;;;;;;1.30;1.20;;;;;;;22.18;65.72;96595.25;5094982;28;20044;-74
2021/06/23 06:14:26;;;;;;;1.30;1.20;;;;;;;22.23;65.45;96589.88;5094897;28;20040;-73
2021/06/23 06:16:53;;;;;;;2.13;1.08;;;;;;;22.39;64.97;96588.56;5094969;28;20216;-73
2021/06/23 06:19:19;;;;;;;2.17;1.67;;;;;;;22.68;64.77;96584.94;5094828;28;20032;-73
2021/06/23 06:21:47;;;;;;;1.40;1.30;;;;;;;22.85;64.41;96592.41;5094442;28;20048;-73
2021/06/23 06:24:13;;;;;;;2.38;1.42;;;;;;;22.89;63.49;96590.72;5086896;28;20036;-73
2021/06/23 06:26:39;;;;;;;2.03;1.40;;;;;;;22.92;63.30;96589.34;5094685;28;20040;-73
2021/06/23 06:29:05;;;;;;;1.52;1.20;;;;;;;22.96;62.99;96590.34;5094965;28;20059;-73
2021/06/23 06:31:32;;;;;;;1.45;1.33;;;;;;;23.06;62.77;96592.88;5095088;28;20043;-73
2021/06/23 06:33:58;;;;;;;1.98;1.10;;;;;;;23.25;62.95;96598.94;5094636;28;20043;-73
2021/06/23 06:36:24;;;;;;;1.40;1.30;;;;;;;23.41;62.24;96588.72;5094994;28;20039;-73
2021/06/23 06:38:51;;;;;;;1.48;1.38;;;;;;;23.41;61.48;96595.97;5093577;28;20040;-73
2021/06/23 06:41:17;;;;;;;1.38;1.25;;;;;;;23.39;61.51;96593.59;5094366;28;20043;-74
2021/06/23 06:43:43;;;;;;;1.25;1.25;;;;;;;23.42;61.25;96589.53;5094754;28;20388;-74
2021/06/23 06:46:09;;;;;;;1.60;1.50;;;;;;;23.42;61.18;96584.97;5094738;28;20047;-73
2021/06/23 06:48:37;;;;;;;1.25;1.05;;;;;;;23.43;60.92;96591.13;5094317;28;20196;-74
2021/06/23 06:51:03;;;;;;;1.40;1.30;;;;;;;23.50;61.04;96594.22;5094586;28;20473;-74
2021/06/23 06:53:29;;;;;;;1.23;1.23;;;;;;;23.49;60.59;96593.38;5094269;28;20040;-74
2021/06/23 06:55:56;;;;;;;1.30;1.20;;;;;;;23.58;60.85;96590.84;5093900;28;20070;-74
2021/06/23 06:58:22;;;;;;;2.05;1.30;;;;;;;23.74;61.10;96583.28;5094640;28;20040;-74
2021/06/23 07:00:48;;;;;;;1.40;1.30;;;;;;;23.51;60.06;96591.22;5093927;28;20056;-74
2021/06/23 07:03:14;;;;;;;1.40;1.20;;;;;;;23.46;60.88;96596.66;5093754;28;20040;-74
2021/06/23 07:05:41;;;;;;;2.28;1.20;;;;;;;23.50;60.62;96594.22;5093917;28;20032;-73
2021/06/23 07:08:07;;;;;;;2.42;1.30;;;;;;;23.48;60.54;96599.06;5093989;28;20473;-74
2021/06/23 07:10:33;;;;;;;1.27;1.10;;;;;;;23.36;59.70;96593.41;5093936;28;20047;-73
2021/06/23 07:13:00;;;;;;;1.00;1.00;;;;;;;23.35;59.80;96589.13;5093819;28;20040;-73
2021/06/23 07:15:27;;;;;;;1.63;1.08;;;;;;;23.61;59.76;96598.25;5093813;28;20048;-74
2021/06/23 07:17:53;;;;;;;0.90;0.90;;;;;;;23.66;59.10;96600.03;5094069;28;20044;-74
2021/06/23 07:20:19;;;;;;;1.23;1.00;;;;;;;23.73;59.06;96595.09;5093635;28;20047;-73
2021/06/23 07:22:46;;;;;;;1.20;1.10;;;;;;;23.85;58.77;96594.59;5093764;28;20035;-74
2021/06/23 07:25:12;;;;;;;1.65;0.90;;;;;;;23.96;58.24;96598.66;5094087;28;20034;-74
2021/06/23 07:27:39;;;;;;;1.00;0.90;;;;;;;24.17;57.34;96596.34;5093943;28;20052;-74
2021/06/23 07:30:06;;;;;;;0.60;0.60;;;;;;;24.22;56.59;96590.06;5093195;28;20043;-74
2021/06/23 07:32:44;;;;;;;1.80;1.00;;;;;;;24.21;56.35;96591.16;5093028;28;20028;-73
2021/06/23 07:37:55;;;;;;;1.55;1.00;;;;;;;24.23;55.79;96584.41;5093946;28;20373;-73
2021/06/23 07:40:35;;;;;;;0.80;0.80;;;;;;;24.14;55.61;96593.47;5093578;28;20032;-75
2021/06/23 07:43:01;;;;;;;0.73;0.73;;;;;;;24.14;55.74;96591.56;5080698;28;20059;-73
2021/06/23 07:45:28;;;;;;;0.70;0.70;;;;;;;24.11;55.00;96589.50;5093518;28;20040;-73
2021/06/23 07:47:54;;;;;;;0.80;0.80;;;;;;;24.08;55.03;96588.19;5093214;28;20464;-74
2021/06/23 07:50:20;;;;;;;0.93;0.77;;;;;;;24.23;54.74;96583.59;5093751;28;20051;-73
2021/06/23 07:52:54;;;;;;;0.77;0.63;;;;;;;24.54;54.62;96586.41;5092974;28;20058;-74
2021/06/23 08:11:34;;;;;;;1.25;0.88;;;;;;;25.46;51.28;96556.44;5093083;28;20047;-74
2021/06/23 08:14:03;;;;;;;0.70;0.70;;;;;;;25.25;50.89;96556.22;5093740;28;20043;-74
2021/06/23 08:16:31;;;;;;;0.70;0.70;;;;;;;25.14;50.34;96552.22;5092730;28;20044;-74
2021/06/23 08:18:57;;;;;;;0.60;0.60;;;;;;;25.07;50.39;96545.38;5083957;28;20032;-74
2021/06/23 08:21:24;;;;;;;0.50;0.50;;;;;;;25.06;49.57;96534.97;5092896;28;20051;-74
2021/06/23 08:23:50;;;;;;;0.50;0.50;;;;;;;25.15;49.18;96527.72;5092738;28;20039;-74
2021/06/23 08:26:16;;;;;;;0.68;0.68;;;;;;;25.29;48.79;96530.34;5093099;28;20048;-75
2021/06/23 08:28:43;;;;;;;0.60;0.60;;;;;;;25.52;48.68;96522.97;5092895;28;20392;-74
2021/06/23 08:31:09;;;;;;;0.47;0.47;;;;;;;25.79;48.17;96511.19;5093021;28;20044;-74
2021/06/23 08:33:36;;;;;;;1.95;0.70;;;;;;;25.90;47.83;96500.94;5093021;28;20036;-74
2021/06/23 08:36:03;;;;;;;0.60;0.60;;;;;;;25.96;47.35;96499.69;5093104;28;20047;-74
2021/06/23 08:38:30;;;;;;;1.42;0.60;;;;;;;26.03;47.14;96504.59;5092983;28;20040;-74
2021/06/23 08:40:56;;;;;;;0.60;0.55;;;;;;;26.02;47.20;96503.00;5092539;28;20044;-74
2021/06/23 08:43:23;;;;;;;0.65;0.60;;;;;;;26.12;47.23;96505.34;5092744;28;20035;-73
2021/06/23 08:45:49;;;;;;;1.02;0.50;;;;;;;26.26;47.35;96510.59;5094632;28;20484;-74
2021/06/23 08:48:16;;;;;;;0.57;0.57;;;;;;;26.33;46.80;96502.81;5096893;28;20047;-74
2021/06/23 08:50:42;;;;;;;1.35;0.55;;;;;;;26.44;47.03;96506.00;5096718;28;20047;-75
2021/06/23 08:53:08;;;;;;;0.40;0.40;;;;;;;26.45;47.06;96502.16;5096624;28;20036;-74
2021/06/23 08:55:36;;;;;;;0.80;0.70;;;;;;;26.61;47.25;96502.50;5096341;28;20056;-74
2021/06/23 08:58:04;;;;;;;0.40;0.40;;;;;;;26.47;46.75;96499.97;5097010;28;20040;-74
2021/06/23 09:00:31;;;;;;;0.55;0.52;;;;;;;26.38;46.83;96501.88;5096355;28;20043;-74
2021/06/23 09:03:03;;;;;;;0.60;0.60;;;;;;;26.21;46.82;96505.38;5096857;28;20036;-74
2021/06/23 09:05:56;;;;;;;0.50;0.50;;;;;;;26.19;46.17;96500.31;5096416;28;20028;-73
2021/06/23 09:08:37;;;;;;;0.45;0.45;;;;;;;26.06;44.83;96485.13;5096254;28;20032;-74
2021/06/23 09:11:14;;;;;;;0.38;0.30;;;;;;;25.94;46.42;96503.81;5096102;28;20055;-74
2021/06/23 09:13:41;;;;;;;0.40;0.40;;;;;;;25.96;46.66;96504.28;5096872;28;20036;-74
2021/06/23 09:16:09;;;;;;;0.40;0.40;;;;;;;25.96;46.96;96507.75;5096659;28;20047;-74
2021/06/23 09:18:41;;;;;;;0.73;0.60;;;;;;;26.07;47.40;96506.31;5096107;28;20039;-74
2021/06/23 09:21:19;;;;;;;0.20;0.20;;;;;;;26.29;47.15;96501.88;5096342;28;20388;-74
2021/06/23 09:23:59;;;;;;;0.57;0.47;;;;;;;26.47;46.83;96494.56;5094807;28;20472;-74
2021/06/23 09:26:33;;;;;;;0.52;0.52;;;;;;;26.28;45.51;96503.78;5096587;28;20040;-74
2021/06/23 09:29:18;;;;;;;1.83;0.50;;;;;;;26.24;45.12;96505.50;5096242;28;20040;-74
2021/06/23 09:31:50;;;;;;;;;;;;;;;26.21;44.80;96506.16;5096315;28;20032;-74
2021/06/23 09:34:42;;;;;;;0.35;0.35;;;;;;;26.33;44.67;96505.50;5095338;28;19907;-74
2021/06/23 09:37:27;;;;;;;0.57;0.52;;;;;;;26.22;43.38;96506.94;5084602;28;20433;-74
2021/06/23 09:40:15;;;;;;;0.43;0.43;;;;;;;26.08;45.24;96529.41;5095684;28;20036;-74
2021/06/23 09:43:11;;;;;;;0.40;0.38;;;;;;;26.40;46.55;96534.63;5095492;28;20372;-74
2021/06/23 09:45:37;;;;;;;0.40;0.40;;;;;;;26.70;45.65;96522.09;5096085;28;20365;-74
2021/06/23 09:48:07;;;;;;;0.43;0.43;;;;;;;26.73;44.61;96519.56;5095334;28;20048;-74
2021/06/23 09:50:36;;;;;;;0.40;0.40;;;;;;;26.63;43.98;96529.88;5095309;28;20032;-74
2021/06/23 09:53:04;;;;;;;0.60;0.50;;;;;;;26.58;44.08;96535.41;5095332;28;20032;-74
2021/06/23 09:55:39;;;;;;;0.93;0.60;;;;;;;26.49;44.70;96536.16;5094944;28;20055;-74
2021/06/23 09:58:15;;;;;;;0.22;0.22;;;;;;;26.59;44.20;96528.94;5095859;28;20048;-74
2021/06/23 10:01:03;;;;;;;0.55;0.40;;;;;;;26.53;42.24;96512.13;5095583;28;20404;-74
2021/06/23 10:03:50;;;;;;;0.32;0.30;;;;;;;26.24;43.61;96537.78;5095033;28;20455;-74
2021/06/23 10:06:25;;;;;;;0.32;0.32;;;;;;;25.89;43.47;96535.09;5095761;28;20040;-75
2021/06/23 10:09:10;;;;;;;0.95;0.40;;;;;;;25.57;44.00;96540.84;5085133;28;20028;-74
2021/06/23 10:11:36;;;;;;;0.55;0.40;;;;;;;25.28;44.70;96547.53;5095078;28;20495;-74
2021/06/23 10:14:05;;;;;;;0.20;0.20;;;;;;;25.26;45.30;96552.41;5094879;28;20419;-74
2021/06/23 10:16:31;;;;;;;0.40;0.40;;;;;;;25.33;45.80;96539.34;5095079;28;20044;-74
2021/06/23 10:18:58;;;;;;;0.35;0.35;;;;;;;25.64;45.57;96525.84;5093084;28;20499;-74
2021/06/23 10:21:25;;;;;;;0.40;0.40;;;;;;;25.95;45.38;96518.81;5094559;28;20043;-74
2021/06/23 10:23:51;;;;;;;0.30;0.30;;;;;;;26.08;44.17;96505.22;5094804;28;20028;-76
2021/06/23 10:26:19;;;;;;;0.30;0.20;;;;;;;26.29;44.62;96515.31;5093921;28;20051;-74
2021/06/23 10:28:49;;;;;;;0.43;0.40;;;;;;;26.32;43.81;96512.78;5095521;28;20036;-74
2021/06/23 10:31:17;;;;;;;1.25;0.30;;;;;;;25.88;44.67;96509.28;5094561;28;20036;-75
2021/06/23 10:33:43;;;;;;;0.35;0.35;;;;;;;25.62;45.07;96517.31;5094842;28;20031;-74
2021/06/23 10:36:10;;;;;;;0.47;0.32;;;;;;;25.51;45.76;96518.69;5094718;28;20036;-74
2021/06/23 10:38:37;;;;;;;0.38;0.20;;;;;;;25.51;45.93;96522.19;5094816;28;20028;-74
2021/06/23 10:41:04;;;;;;;0.40;0.40;;;;;;;25.65;46.40;96518.59;5094475;28;20036;-74
2021/06/23 10:43:31;;;;;;;0.55;0.32;;;;;;;26.07;46.12;96513.59;5094746;28;20040;-75
2021/06/23 10:45:57;;;;;;;0.30;0.30;;;;;;;26.42;46.18;96514.38;5094235;28;20055;-74
2021/06/23 10:48:23;;;;;;;0.45;0.40;;;;;;;26.56;46.17;96499.94;5094907;28;20043;-74
2021/06/23 10:50:50;;;;;;;0.30;0.30;;;;;;;26.60;46.01;96508.97;5094066;28;20416;-74
2021/06/23 10:53:34;;;;;;;0.80;0.40;;;;;;;26.59;41.11;96475.91;5094238;28;20396;-75
2021/06/23 10:56:04;;;;;;;0.25;0.20;;;;;;;26.41;44.92;96518.16;5094351;28;20060;-74
2021/06/23 10:58:33;;;;;;;0.50;0.30;;;;;;;26.18;45.29;96519.44;5094848;28;20051;-74
2021/06/23 11:01:09;;;;;;;0.30;0.30;;;;;;;26.15;45.30;96525.47;5093979;28;20040;-75
2021/06/23 11:03:59;;;;;;;0.45;0.28;;;;;;;25.99;45.97;96520.53;5094107;28;20024;-74
2021/06/23 11:06:43;;;;;;;0.75;0.35;;;;;;;25.82;42.71;96504.38;5073847;28;20049;-74
2021/06/23 11:09:21;;;;;;;0.30;0.30;;;;;;;25.79;43.01;96505.81;5073070;28;20059;-74
2021/06/23 11:11:47;;;;;;;0.40;0.30;;;;;;;25.87;44.27;96509.59;5073658;28;20051;-74
2021/06/23 11:14:16;;;;;;;0.25;0.25;;;;;;;25.87;44.16;96510.41;5073865;28;20051;-74
2021/06/23 11:16:42;;;;;;;0.20;0.20;;;;;;;25.85;44.22;96509.94;5073624;28;20032;-74
2021/06/23 11:19:09;;;;;;;0.85;0.28;;;;;;;25.71;44.32;96503.91;5073347;28;20051;-74
2021/06/23 11:21:37;;;;;;;0.32;0.30;;;;;;;26.06;44.78;96518.19;5072979;28;20041;-74
2021/06/23 11:24:16;;;;;;;5.18;0.60;;;;;;;26.48;46.47;96531.91;5073668;28;20033;-75
2021/06/23 11:26:43;;;;;;;0.20;0.20;;;;;;;26.68;45.41;96517.03;5073620;28;20052;-74
2021/06/23 11:29:09;;;;;;;0.40;0.38;;;;;;;26.44;44.74;96514.84;5073534;28;20047;-74
2021/06/23 11:31:40;;;;;;;0.30;0.30;;;;;;;26.17;43.34;96499.06;5073317;28;20040;-74
2021/06/23 11:34:06;;;;;;;1.20;0.20;;;;;;;25.93;44.92;96505.69;5073440;28;20401;-74
2021/06/23 11:36:33;;;;;;;0.20;0.20;;;;;;;25.73;45.05;96496.31;5073558;28;20045;-74
2021/06/23 11:39:02;;;;;;;0.63;0.30;;;;;;;25.66;45.35;96504.84;5073366;28;20477;-74
2021/06/23 11:41:29;;;;;;;0.52;0.30;;;;;;;25.64;45.85;96499.00;5072286;28;20040;-74
2021/06/23 11:43:55;;;;;;;0.30;0.30;;;;;;;25.68;46.04;96505.31;5072801;28;20401;-74
2021/06/23 11:46:21;;;;;;;0.20;0.20;;;;;;;25.43;45.06;96492.63;5073402;28;20388;-74
2021/06/23 11:48:47;;;;;;;0.82;0.30;;;;;;;25.16;45.30;96502.47;5073573;28;20041;-74
2021/06/23 11:51:15;;;;;;;0.93;0.40;;;;;;;24.98;45.42;96506.19;5073323;28;20044;-74
2021/06/23 11:53:42;;;;;;;0.68;0.30;;;;;;;25.04;45.73;96503.06;5072953;28;20040;-74
2021/06/23 11:56:09;;;;;;;0.30;0.30;;;;;;;25.31;45.70;96510.13;5073303;28;20052;-74
2021/06/23 11:58:36;;;;;;;0.43;0.28;;;;;;;25.48;46.19;96511.28;5073224;28;20374;-74
2021/06/23 12:01:02;;;;;;;0.10;0.10;;;;;;;25.54;46.10;96506.56;5073130;28;20048;-74